sensor_id;sensor_type;location;lat;lon;timestamp;temperature;humidity
18658;DHT22;9458;50.942;5.074;2022-10-22T00:00:07;14.30;99.90
18658;DHT22;9458;50.942;5.074;2022-10-22T00:02:35;14.30;99.90
18658;DHT22;9458;50.942;5.074;2022-10-22T00:05:03;14.30;99.90
18658;DHT22;9458;50.942;5.074;2022-10-22T00:07:31;14.20;99.90
18658;DHT22;9458;50.942;5.074;2022-10-22T00:09:58;14.20;99.90
18658;DHT22;9458;50.942;5.074;2022-10-22T00:12:27;14.10;99.90
18658;DHT22;9458;50.942;5.074;2022-10-22T00:14:57;14.10;99.90
18658;DHT22;9458;50.942;5.074;2022-10-22T00:17:26;14.10;99.90
18658;DHT22;9458;50.942;5.074;2022-10-22T00:19:53;14.10;99.90
18658;DHT22;9458;50.942;5.074;2022-10-22T00:22:32;14.10;99.90
18658;DHT22;9458;50.942;5.074;2022-10-22T00:25:01;14.20;99.90
18658;DHT22;9458;50.942;5.074;2022-10-22T00:27:32;14.30;99.90
18658;DHT22;9458;50.942;5.074;2022-10-22T00:30:01;14.30;99.90
18658;DHT22;9458;50.942;5.074;2022-10-22T00:32:29;14.30;99.90
18658;DHT22;9458;50.942;5.074;2022-10-22T00:34:57;14.30;99.90
18658;DHT22;9458;50.942;5.074;2022-10-22T00:37:25;14.30;99.90
18658;DHT22;9458;50.942;5.074;2022-10-22T00:39:53;14.40;99.90
18658;DHT22;9458;50.942;5.074;2022-10-22T00:42:22;14.30;99.90
18658;DHT22;9458;50.942;5.074;2022-10-22T00:45:13;14.30;99.90
18658;DHT22;9458;50.942;5.074;2022-10-22T00:47:44;14.20;99.90
18658;DHT22;9458;50.942;5.074;2022-10-22T00:50:15;14.20;99.90
18658;DHT22;9458;50.942;5.074;2022-10-22T00:52:43;14.20;99.90
18658;DHT22;9458;50.942;5.074;2022-10-22T00:55:12;14.20;99.90
18658;DHT22;9458;50.942;5.074;2022-10-22T00:57:40;14.20;99.90
18658;DHT22;9458;50.942;5.074;2022-10-22T01:00:11;14.20;99.90
18658;DHT22;9458;50.942;5.074;2022-10-22T01:02:39;14.20;99.90
18658;DHT22;9458;50.942;5.074;2022-10-22T01:05:07;14.20;99.90
18658;DHT22;9458;50.942;5.074;2022-10-22T01:07:39;14.20;99.90
18658;DHT22;9458;50.942;5.074;2022-10-22T01:10:14;14.20;99.90
18658;DHT22;9458;50.942;5.074;2022-10-22T01:12:47;14.20;99.90
18658;DHT22;9458;50.942;5.074;2022-10-22T01:15:23;14.20;99.90
18658;DHT22;9458;50.942;5.074;2022-10-22T01:17:56;14.30;99.90
18658;DHT22;9458;50.942;5.074;2022-10-22T01:20:39;14.20;99.90
18658;DHT22;9458;50.942;5.074;2022-10-22T01:23:23;14.20;99.90
18658;DHT22;9458;50.942;5.074;2022-10-22T01:25:59;14.30;99.90
18658;DHT22;9458;50.942;5.074;2022-10-22T01:28:55;14.30;99.90
18658;DHT22;9458;50.942;5.074;2022-10-22T01:31:26;14.20;99.90
18658;DHT22;9458;50.942;5.074;2022-10-22T01:33:56;14.20;99.90
18658;DHT22;9458;50.942;5.074;2022-10-22T01:36:27;14.20;99.90
18658;DHT22;9458;50.942;5.074;2022-10-22T01:38:58;14.20;99.90
18658;DHT22;9458;50.942;5.074;2022-10-22T01:41:27;14.20;99.90
18658;DHT22;9458;50.942;5.074;2022-10-22T01:43:56;14.20;99.90
18658;DHT22;9458;50.942;5.074;2022-10-22T01:46:25;14.20;99.90
18658;DHT22;9458;50.942;5.074;2022-10-22T01:49:09;14.20;99.90
18658;DHT22;9458;50.942;5.074;2022-10-22T01:51:51;14.20;99.90
18658;DHT22;9458;50.942;5.074;2022-10-22T01:54:35;14.20;99.90
18658;DHT22;9458;50.942;5.074;2022-10-22T01:57:08;14.20;99.90
18658;DHT22;9458;50.942;5.074;2022-10-22T01:59:47;14.10;99.90
18658;DHT22;9458;50.942;5.074;2022-10-22T02:02:27;14.10;99.90
18658;DHT22;9458;50.942;5.074;2022-10-22T02:04:57;14.10;99.90
18658;DHT22;9458;50.942;5.074;2022-10-22T02:07:31;14.10;99.90
18658;DHT22;9458;50.942;5.074;2022-10-22T02:10:01;14.10;99.90
18658;DHT22;9458;50.942;5.074;2022-10-22T02:12:30;14.10;99.90
18658;DHT22;9458;50.942;5.074;2022-10-22T02:15:02;14.10;99.90
18658;DHT22;9458;50.942;5.074;2022-10-22T02:17:32;14.00;99.90
18658;DHT22;9458;50.942;5.074;2022-10-22T02:20:03;14.00;99.90
18658;DHT22;9458;50.942;5.074;2022-10-22T02:22:32;14.00;99.90
18658;DHT22;9458;50.942;5.074;2022-10-22T02:25:02;14.00;99.90
18658;DHT22;9458;50.942;5.074;2022-10-22T02:27:33;14.00;99.90
18658;DHT22;9458;50.942;5.074;2022-10-22T02:30:06;14.00;99.90
18658;DHT22;9458;50.942;5.074;2022-10-22T02:32:38;14.10;99.90
18658;DHT22;9458;50.942;5.074;2022-10-22T02:35:10;14.00;99.90
18658;DHT22;9458;50.942;5.074;2022-10-22T02:37:39;14.10;99.90
18658;DHT22;9458;50.942;5.074;2022-10-22T02:40:08;14.10;99.90
18658;DHT22;9458;50.942;5.074;2022-10-22T02:42:37;14.10;99.90
18658;DHT22;9458;50.942;5.074;2022-10-22T02:45:08;14.10;99.90
18658;DHT22;9458;50.942;5.074;2022-10-22T02:47:35;14.10;99.90
18658;DHT22;9458;50.942;5.074;2022-10-22T02:50:03;14.10;99.90
18658;DHT22;9458;50.942;5.074;2022-10-22T02:52:31;14.10;99.90
18658;DHT22;9458;50.942;5.074;2022-10-22T02:54:59;14.10;99.90
18658;DHT22;9458;50.942;5.074;2022-10-22T02:57:26;14.10;99.90
18658;DHT22;9458;50.942;5.074;2022-10-22T02:59:54;14.10;99.90
18658;DHT22;9458;50.942;5.074;2022-10-22T03:02:23;14.20;99.90
18658;DHT22;9458;50.942;5.074;2022-10-22T03:04:50;14.20;99.90
18658;DHT22;9458;50.942;5.074;2022-10-22T03:07:18;14.20;99.90
18658;DHT22;9458;50.942;5.074;2022-10-22T03:09:45;14.20;99.90
18658;DHT22;9458;50.942;5.074;2022-10-22T03:12:14;14.20;99.90
18658;DHT22;9458;50.942;5.074;2022-10-22T03:14:42;14.20;99.90
18658;DHT22;9458;50.942;5.074;2022-10-22T03:17:09;14.20;99.90
18658;DHT22;9458;50.942;5.074;2022-10-22T03:19:38;14.20;99.90
18658;DHT22;9458;50.942;5.074;2022-10-22T03:22:09;14.20;99.90
18658;DHT22;9458;50.942;5.074;2022-10-22T03:24:40;14.30;99.90
18658;DHT22;9458;50.942;5.074;2022-10-22T03:27:09;14.20;99.90
18658;DHT22;9458;50.942;5.074;2022-10-22T03:29:38;14.20;99.90
18658;DHT22;9458;50.942;5.074;2022-10-22T03:32:06;14.20;99.90
18658;DHT22;9458;50.942;5.074;2022-10-22T03:34:33;14.20;99.90
18658;DHT22;9458;50.942;5.074;2022-10-22T03:37:02;14.20;99.90
18658;DHT22;9458;50.942;5.074;2022-10-22T03:39:32;14.20;99.90
18658;DHT22;9458;50.942;5.074;2022-10-22T03:42:01;14.20;99.90
18658;DHT22;9458;50.942;5.074;2022-10-22T03:44:29;14.20;99.90
18658;DHT22;9458;50.942;5.074;2022-10-22T03:46:57;14.20;99.90
18658;DHT22;9458;50.942;5.074;2022-10-22T03:49:25;14.20;99.90
18658;DHT22;9458;50.942;5.074;2022-10-22T03:51:52;14.20;99.90
18658;DHT22;9458;50.942;5.074;2022-10-22T03:54:21;14.20;99.90
18658;DHT22;9458;50.942;5.074;2022-10-22T03:56:48;14.20;99.90
18658;DHT22;9458;50.942;5.074;2022-10-22T03:59:16;14.10;99.90
18658;DHT22;9458;50.942;5.074;2022-10-22T04:01:45;14.20;99.90
18658;DHT22;9458;50.942;5.074;2022-10-22T04:04:12;14.20;99.90
18658;DHT22;9458;50.942;5.074;2022-10-22T04:06:40;14.20;99.90
18658;DHT22;9458;50.942;5.074;2022-10-22T04:09:07;14.20;99.90
18658;DHT22;9458;50.942;5.074;2022-10-22T04:11:36;14.20;99.90
18658;DHT22;9458;50.942;5.074;2022-10-22T04:14:04;14.10;99.90
18658;DHT22;9458;50.942;5.074;2022-10-22T04:16:32;14.10;99.90
18658;DHT22;9458;50.942;5.074;2022-10-22T04:18:59;14.20;99.90
18658;DHT22;9458;50.942;5.074;2022-10-22T04:21:26;14.20;99.90
18658;DHT22;9458;50.942;5.074;2022-10-22T04:23:56;14.20;99.90
18658;DHT22;9458;50.942;5.074;2022-10-22T04:26:23;14.20;99.90
18658;DHT22;9458;50.942;5.074;2022-10-22T04:28:52;14.20;99.90
18658;DHT22;9458;50.942;5.074;2022-10-22T04:31:22;14.10;99.90
18658;DHT22;9458;50.942;5.074;2022-10-22T04:33:52;14.20;99.90
18658;DHT22;9458;50.942;5.074;2022-10-22T04:36:20;14.20;99.90
18658;DHT22;9458;50.942;5.074;2022-10-22T04:38:55;14.20;99.90
18658;DHT22;9458;50.942;5.074;2022-10-22T04:41:25;14.20;99.90
18658;DHT22;9458;50.942;5.074;2022-10-22T04:43:55;14.20;99.90
18658;DHT22;9458;50.942;5.074;2022-10-22T04:46:24;14.20;99.90
18658;DHT22;9458;50.942;5.074;2022-10-22T04:48:51;14.20;99.90
18658;DHT22;9458;50.942;5.074;2022-10-22T04:51:21;14.20;99.90
18658;DHT22;9458;50.942;5.074;2022-10-22T04:53:50;14.30;99.90
18658;DHT22;9458;50.942;5.074;2022-10-22T04:56:19;14.30;99.90
18658;DHT22;9458;50.942;5.074;2022-10-22T04:58:48;14.30;99.90
18658;DHT22;9458;50.942;5.074;2022-10-22T05:01:18;14.30;99.90
18658;DHT22;9458;50.942;5.074;2022-10-22T05:03:48;14.30;99.90
18658;DHT22;9458;50.942;5.074;2022-10-22T05:06:16;14.40;99.90
18658;DHT22;9458;50.942;5.074;2022-10-22T05:08:45;14.40;99.90
18658;DHT22;9458;50.942;5.074;2022-10-22T05:11:15;14.40;99.90
18658;DHT22;9458;50.942;5.074;2022-10-22T05:13:43;14.40;99.90
18658;DHT22;9458;50.942;5.074;2022-10-22T05:16:12;14.30;99.90
18658;DHT22;9458;50.942;5.074;2022-10-22T05:18:42;14.30;99.90
18658;DHT22;9458;50.942;5.074;2022-10-22T05:21:11;14.30;99.90
18658;DHT22;9458;50.942;5.074;2022-10-22T05:23:39;14.30;99.90
18658;DHT22;9458;50.942;5.074;2022-10-22T05:26:08;14.30;99.90
18658;DHT22;9458;50.942;5.074;2022-10-22T05:28:36;14.30;99.90
18658;DHT22;9458;50.942;5.074;2022-10-22T05:31:04;14.30;99.90
18658;DHT22;9458;50.942;5.074;2022-10-22T05:33:33;14.30;99.90
18658;DHT22;9458;50.942;5.074;2022-10-22T05:36:04;14.30;99.90
18658;DHT22;9458;50.942;5.074;2022-10-22T05:38:34;14.20;99.90
18658;DHT22;9458;50.942;5.074;2022-10-22T05:41:04;14.20;99.90
18658;DHT22;9458;50.942;5.074;2022-10-22T05:43:35;14.20;99.90
18658;DHT22;9458;50.942;5.074;2022-10-22T05:46:04;14.20;99.90
18658;DHT22;9458;50.942;5.074;2022-10-22T05:48:33;14.20;99.90
18658;DHT22;9458;50.942;5.074;2022-10-22T05:51:03;14.20;99.90
18658;DHT22;9458;50.942;5.074;2022-10-22T05:53:31;14.10;99.90
18658;DHT22;9458;50.942;5.074;2022-10-22T05:56:00;14.10;99.90
18658;DHT22;9458;50.942;5.074;2022-10-22T05:58:29;14.10;99.90
18658;DHT22;9458;50.942;5.074;2022-10-22T06:01:00;14.10;99.90
18658;DHT22;9458;50.942;5.074;2022-10-22T06:03:28;14.10;99.90
18658;DHT22;9458;50.942;5.074;2022-10-22T06:05:58;14.10;99.90
18658;DHT22;9458;50.942;5.074;2022-10-22T06:08:28;14.10;99.90
18658;DHT22;9458;50.942;5.074;2022-10-22T06:10:56;14.10;99.90
18658;DHT22;9458;50.942;5.074;2022-10-22T06:13:23;14.00;99.90
18658;DHT22;9458;50.942;5.074;2022-10-22T06:15:51;14.00;99.90
18658;DHT22;9458;50.942;5.074;2022-10-22T06:18:19;14.10;99.90
18658;DHT22;9458;50.942;5.074;2022-10-22T06:20:46;14.00;99.90
18658;DHT22;9458;50.942;5.074;2022-10-22T06:23:13;14.00;99.90
18658;DHT22;9458;50.942;5.074;2022-10-22T06:25:42;14.00;99.90
18658;DHT22;9458;50.942;5.074;2022-10-22T06:28:09;14.00;99.90
18658;DHT22;9458;50.942;5.074;2022-10-22T06:30:37;14.10;99.90
18658;DHT22;9458;50.942;5.074;2022-10-22T06:33:04;14.10;99.90
18658;DHT22;9458;50.942;5.074;2022-10-22T06:35:32;14.20;99.90
18658;DHT22;9458;50.942;5.074;2022-10-22T06:38:00;14.20;99.90
18658;DHT22;9458;50.942;5.074;2022-10-22T06:40:27;14.20;99.90
18658;DHT22;9458;50.942;5.074;2022-10-22T06:42:58;14.30;99.90
18658;DHT22;9458;50.942;5.074;2022-10-22T06:45:25;14.30;99.90
18658;DHT22;9458;50.942;5.074;2022-10-22T06:47:53;14.40;99.90
18658;DHT22;9458;50.942;5.074;2022-10-22T06:50:21;14.50;99.90
18658;DHT22;9458;50.942;5.074;2022-10-22T06:52:50;14.50;99.90
18658;DHT22;9458;50.942;5.074;2022-10-22T06:55:17;14.50;99.90
18658;DHT22;9458;50.942;5.074;2022-10-22T06:57:44;14.50;99.90
18658;DHT22;9458;50.942;5.074;2022-10-22T07:00:14;14.50;99.90
18658;DHT22;9458;50.942;5.074;2022-10-22T07:02:49;14.50;99.90
18658;DHT22;9458;50.942;5.074;2022-10-22T07:05:18;14.50;99.90
18658;DHT22;9458;50.942;5.074;2022-10-22T07:07:46;14.60;99.90
18658;DHT22;9458;50.942;5.074;2022-10-22T07:10:13;14.60;99.90
18658;DHT22;9458;50.942;5.074;2022-10-22T07:12:41;14.60;99.90
18658;DHT22;9458;50.942;5.074;2022-10-22T07:15:18;14.60;99.90
18658;DHT22;9458;50.942;5.074;2022-10-22T07:17:45;14.60;99.90
18658;DHT22;9458;50.942;5.074;2022-10-22T07:20:12;14.70;99.90
18658;DHT22;9458;50.942;5.074;2022-10-22T07:22:41;14.80;99.90
18658;DHT22;9458;50.942;5.074;2022-10-22T07:25:10;14.80;99.90
18658;DHT22;9458;50.942;5.074;2022-10-22T07:27:37;14.80;99.90
18658;DHT22;9458;50.942;5.074;2022-10-22T07:30:06;14.90;99.90
18658;DHT22;9458;50.942;5.074;2022-10-22T07:32:36;14.90;99.90
18658;DHT22;9458;50.942;5.074;2022-10-22T07:35:05;15.00;99.90
18658;DHT22;9458;50.942;5.074;2022-10-22T07:37:32;15.00;99.90
18658;DHT22;9458;50.942;5.074;2022-10-22T07:39:59;15.10;99.90
18658;DHT22;9458;50.942;5.074;2022-10-22T07:42:27;15.20;99.90
18658;DHT22;9458;50.942;5.074;2022-10-22T07:44:54;15.30;99.90
18658;DHT22;9458;50.942;5.074;2022-10-22T07:47:23;15.40;99.90
18658;DHT22;9458;50.942;5.074;2022-10-22T07:49:52;15.60;99.90
18658;DHT22;9458;50.942;5.074;2022-10-22T07:52:19;15.80;99.90
18658;DHT22;9458;50.942;5.074;2022-10-22T07:54:46;16.00;99.90
18658;DHT22;9458;50.942;5.074;2022-10-22T07:57:14;16.20;99.90
18658;DHT22;9458;50.942;5.074;2022-10-22T07:59:42;16.40;99.90
18658;DHT22;9458;50.942;5.074;2022-10-22T08:02:09;16.50;99.90
18658;DHT22;9458;50.942;5.074;2022-10-22T08:04:37;16.50;99.90
18658;DHT22;9458;50.942;5.074;2022-10-22T08:07:06;16.60;99.90
18658;DHT22;9458;50.942;5.074;2022-10-22T08:09:33;16.50;99.90
18658;DHT22;9458;50.942;5.074;2022-10-22T08:12:00;16.40;99.90
18658;DHT22;9458;50.942;5.074;2022-10-22T08:14:28;16.30;99.90
18658;DHT22;9458;50.942;5.074;2022-10-22T08:16:56;16.40;99.90
18658;DHT22;9458;50.942;5.074;2022-10-22T08:19:23;16.40;99.90
18658;DHT22;9458;50.942;5.074;2022-10-22T08:21:51;16.70;99.90
18658;DHT22;9458;50.942;5.074;2022-10-22T08:24:20;17.00;99.90
18658;DHT22;9458;50.942;5.074;2022-10-22T08:26:47;17.20;99.90
18658;DHT22;9458;50.942;5.074;2022-10-22T08:29:15;17.30;99.90
18658;DHT22;9458;50.942;5.074;2022-10-22T08:31:42;17.20;99.90
18658;DHT22;9458;50.942;5.074;2022-10-22T08:34:10;17.20;99.90
18658;DHT22;9458;50.942;5.074;2022-10-22T08:36:38;17.10;99.90
18658;DHT22;9458;50.942;5.074;2022-10-22T08:39:06;17.10;99.90
18658;DHT22;9458;50.942;5.074;2022-10-22T08:41:41;17.30;99.90
18658;DHT22;9458;50.942;5.074;2022-10-22T08:44:28;17.60;99.90
18658;DHT22;9458;50.942;5.074;2022-10-22T08:47:15;17.80;99.90
18658;DHT22;9458;50.942;5.074;2022-10-22T08:49:46;17.80;99.90
18658;DHT22;9458;50.942;5.074;2022-10-22T08:52:16;17.70;99.90
18658;DHT22;9458;50.942;5.074;2022-10-22T08:54:50;17.60;99.90
18658;DHT22;9458;50.942;5.074;2022-10-22T08:57:51;17.50;99.90
18658;DHT22;9458;50.942;5.074;2022-10-22T09:00:26;17.30;99.90
18658;DHT22;9458;50.942;5.074;2022-10-22T09:03:09;17.20;99.90
18658;DHT22;9458;50.942;5.074;2022-10-22T09:05:50;17.20;99.90
18658;DHT22;9458;50.942;5.074;2022-10-22T09:08:19;17.10;99.90
18658;DHT22;9458;50.942;5.074;2022-10-22T09:10:49;17.10;99.90
18658;DHT22;9458;50.942;5.074;2022-10-22T09:13:20;17.20;99.90
18658;DHT22;9458;50.942;5.074;2022-10-22T09:15:52;17.20;99.90
18658;DHT22;9458;50.942;5.074;2022-10-22T09:18:32;17.20;99.90
18658;DHT22;9458;50.942;5.074;2022-10-22T09:21:05;17.20;99.90
18658;DHT22;9458;50.942;5.074;2022-10-22T09:23:43;17.30;99.90
18658;DHT22;9458;50.942;5.074;2022-10-22T09:26:15;17.30;99.90
18658;DHT22;9458;50.942;5.074;2022-10-22T09:28:48;17.30;99.90
18658;DHT22;9458;50.942;5.074;2022-10-22T09:31:16;17.30;99.90
18658;DHT22;9458;50.942;5.074;2022-10-22T09:33:45;17.30;99.90
18658;DHT22;9458;50.942;5.074;2022-10-22T09:36:21;17.30;99.90
18658;DHT22;9458;50.942;5.074;2022-10-22T09:38:50;17.30;99.90
18658;DHT22;9458;50.942;5.074;2022-10-22T09:41:19;17.30;99.90
18658;DHT22;9458;50.942;5.074;2022-10-22T09:43:48;17.30;99.90
18658;DHT22;9458;50.942;5.074;2022-10-22T09:46:17;17.30;99.90
18658;DHT22;9458;50.942;5.074;2022-10-22T09:48:48;17.30;99.90
18658;DHT22;9458;50.942;5.074;2022-10-22T09:51:20;17.30;99.90
18658;DHT22;9458;50.942;5.074;2022-10-22T09:53:56;17.40;99.90
18658;DHT22;9458;50.942;5.074;2022-10-22T09:56:25;17.40;99.90
18658;DHT22;9458;50.942;5.074;2022-10-22T09:58:57;17.40;99.90
18658;DHT22;9458;50.942;5.074;2022-10-22T10:01:26;17.40;99.90
18658;DHT22;9458;50.942;5.074;2022-10-22T10:04:01;17.40;99.90
18658;DHT22;9458;50.942;5.074;2022-10-22T10:06:31;17.40;99.90
18658;DHT22;9458;50.942;5.074;2022-10-22T10:08:59;17.40;99.90
18658;DHT22;9458;50.942;5.074;2022-10-22T10:11:35;17.50;99.90
18658;DHT22;9458;50.942;5.074;2022-10-22T10:14:12;17.60;99.90
18658;DHT22;9458;50.942;5.074;2022-10-22T10:16:47;17.70;99.90
18658;DHT22;9458;50.942;5.074;2022-10-22T10:19:40;17.80;99.90
18658;DHT22;9458;50.942;5.074;2022-10-22T10:22:23;17.90;99.90
18658;DHT22;9458;50.942;5.074;2022-10-22T10:25:10;17.80;99.90
18658;DHT22;9458;50.942;5.074;2022-10-22T10:27:42;17.80;99.90
18658;DHT22;9458;50.942;5.074;2022-10-22T10:30:14;17.80;99.90
18658;DHT22;9458;50.942;5.074;2022-10-22T10:33:09;17.80;99.90
18658;DHT22;9458;50.942;5.074;2022-10-22T10:35:44;17.80;99.90
18658;DHT22;9458;50.942;5.074;2022-10-22T10:38:32;17.80;99.90
18658;DHT22;9458;50.942;5.074;2022-10-22T10:41:11;17.90;99.90
18658;DHT22;9458;50.942;5.074;2022-10-22T10:43:54;17.90;99.90
18658;DHT22;9458;50.942;5.074;2022-10-22T10:46:34;17.90;99.90
18658;DHT22;9458;50.942;5.074;2022-10-22T10:49:09;17.90;99.90
18658;DHT22;9458;50.942;5.074;2022-10-22T10:51:42;18.00;99.90
18658;DHT22;9458;50.942;5.074;2022-10-22T10:54:20;18.00;99.90
18658;DHT22;9458;50.942;5.074;2022-10-22T10:56:55;18.00;99.90
18658;DHT22;9458;50.942;5.074;2022-10-22T10:59:37;18.00;99.90
18658;DHT22;9458;50.942;5.074;2022-10-22T11:02:53;17.90;99.90
18658;DHT22;9458;50.942;5.074;2022-10-22T11:05:37;17.90;99.90
18658;DHT22;9458;50.942;5.074;2022-10-22T11:08:09;17.80;99.90
18658;DHT22;9458;50.942;5.074;2022-10-22T11:10:43;17.80;99.90
18658;DHT22;9458;50.942;5.074;2022-10-22T11:13:18;17.90;99.90
18658;DHT22;9458;50.942;5.074;2022-10-22T11:15:51;17.90;99.90
18658;DHT22;9458;50.942;5.074;2022-10-22T11:18:27;17.90;99.90
18658;DHT22;9458;50.942;5.074;2022-10-22T11:21:15;17.90;99.90
18658;DHT22;9458;50.942;5.074;2022-10-22T11:23:47;17.90;99.90
18658;DHT22;9458;50.942;5.074;2022-10-22T11:26:28;17.90;99.90
18658;DHT22;9458;50.942;5.074;2022-10-22T11:28:59;17.90;99.90
18658;DHT22;9458;50.942;5.074;2022-10-22T11:31:29;17.80;99.90
18658;DHT22;9458;50.942;5.074;2022-10-22T11:34:04;17.80;99.90
18658;DHT22;9458;50.942;5.074;2022-10-22T11:36:33;17.80;99.90
18658;DHT22;9458;50.942;5.074;2022-10-22T11:39:02;17.80;99.90
18658;DHT22;9458;50.942;5.074;2022-10-22T11:41:32;17.80;99.90
18658;DHT22;9458;50.942;5.074;2022-10-22T11:44:19;17.80;99.90
18658;DHT22;9458;50.942;5.074;2022-10-22T11:46:54;17.90;99.90
18658;DHT22;9458;50.942;5.074;2022-10-22T11:49:26;17.90;99.90
18658;DHT22;9458;50.942;5.074;2022-10-22T11:52:21;17.90;99.90
18658;DHT22;9458;50.942;5.074;2022-10-22T11:54:54;17.90;99.90
18658;DHT22;9458;50.942;5.074;2022-10-22T11:57:28;17.90;99.90
18658;DHT22;9458;50.942;5.074;2022-10-22T12:00:08;17.90;99.90
18658;DHT22;9458;50.942;5.074;2022-10-22T12:02:41;17.90;99.90
18658;DHT22;9458;50.942;5.074;2022-10-22T12:05:44;18.00;99.90
18658;DHT22;9458;50.942;5.074;2022-10-22T12:08:24;18.10;99.90
18658;DHT22;9458;50.942;5.074;2022-10-22T12:10:59;18.20;99.90
18658;DHT22;9458;50.942;5.074;2022-10-22T12:13:31;18.00;99.90
18658;DHT22;9458;50.942;5.074;2022-10-22T12:16:01;18.40;99.90
18658;DHT22;9458;50.942;5.074;2022-10-22T12:18:39;18.40;99.90
18658;DHT22;9458;50.942;5.074;2022-10-22T12:21:13;18.30;99.90
18658;DHT22;9458;50.942;5.074;2022-10-22T12:23:43;18.30;99.90
18658;DHT22;9458;50.942;5.074;2022-10-22T12:26:22;18.30;99.90
18658;DHT22;9458;50.942;5.074;2022-10-22T12:28:50;18.20;99.90
18658;DHT22;9458;50.942;5.074;2022-10-22T12:31:17;18.30;99.90
18658;DHT22;9458;50.942;5.074;2022-10-22T12:33:46;18.30;99.90
18658;DHT22;9458;50.942;5.074;2022-10-22T12:36:17;18.20;99.90
18658;DHT22;9458;50.942;5.074;2022-10-22T12:38:45;18.20;99.90
18658;DHT22;9458;50.942;5.074;2022-10-22T12:41:13;18.20;99.90
18658;DHT22;9458;50.942;5.074;2022-10-22T12:43:41;18.20;99.90
18658;DHT22;9458;50.942;5.074;2022-10-22T12:46:11;18.20;99.90
18658;DHT22;9458;50.942;5.074;2022-10-22T12:48:41;18.30;99.90
18658;DHT22;9458;50.942;5.074;2022-10-22T12:51:16;18.30;99.90
18658;DHT22;9458;50.942;5.074;2022-10-22T12:53:46;18.20;99.90
18658;DHT22;9458;50.942;5.074;2022-10-22T12:56:20;18.30;99.90
18658;DHT22;9458;50.942;5.074;2022-10-22T12:58:51;18.20;99.90
18658;DHT22;9458;50.942;5.074;2022-10-22T13:01:19;18.20;99.90
18658;DHT22;9458;50.942;5.074;2022-10-22T13:03:48;18.10;99.90
18658;DHT22;9458;50.942;5.074;2022-10-22T13:06:25;18.10;99.90
18658;DHT22;9458;50.942;5.074;2022-10-22T13:09:13;18.10;99.90
18658;DHT22;9458;50.942;5.074;2022-10-22T13:11:50;18.10;99.90
18658;DHT22;9458;50.942;5.074;2022-10-22T13:14:20;18.10;99.90
18658;DHT22;9458;50.942;5.074;2022-10-22T13:17:10;18.00;99.90
18658;DHT22;9458;50.942;5.074;2022-10-22T13:19:41;18.00;99.90
18658;DHT22;9458;50.942;5.074;2022-10-22T13:22:26;18.00;99.90
18658;DHT22;9458;50.942;5.074;2022-10-22T13:24:55;17.90;99.90
18658;DHT22;9458;50.942;5.074;2022-10-22T13:27:25;17.90;99.90
18658;DHT22;9458;50.942;5.074;2022-10-22T13:29:53;17.90;99.90
18658;DHT22;9458;50.942;5.074;2022-10-22T13:32:27;17.80;99.90
18658;DHT22;9458;50.942;5.074;2022-10-22T13:34:57;17.80;99.90
18658;DHT22;9458;50.942;5.074;2022-10-22T13:37:28;17.80;99.90
18658;DHT22;9458;50.942;5.074;2022-10-22T13:39:56;17.80;99.90
18658;DHT22;9458;50.942;5.074;2022-10-22T13:42:23;17.80;99.90
18658;DHT22;9458;50.942;5.074;2022-10-22T13:44:51;17.80;99.90
18658;DHT22;9458;50.942;5.074;2022-10-22T13:47:24;17.80;99.90
18658;DHT22;9458;50.942;5.074;2022-10-22T13:49:52;17.80;99.90
18658;DHT22;9458;50.942;5.074;2022-10-22T13:52:33;17.80;99.90
18658;DHT22;9458;50.942;5.074;2022-10-22T13:55:12;17.80;99.90
18658;DHT22;9458;50.942;5.074;2022-10-22T13:57:40;17.80;99.90
18658;DHT22;9458;50.942;5.074;2022-10-22T14:00:11;17.80;99.90
18658;DHT22;9458;50.942;5.074;2022-10-22T14:02:39;17.80;99.90
18658;DHT22;9458;50.942;5.074;2022-10-22T14:05:07;17.70;99.90
18658;DHT22;9458;50.942;5.074;2022-10-22T14:07:38;17.70;99.90
18658;DHT22;9458;50.942;5.074;2022-10-22T14:10:17;17.80;99.90
18658;DHT22;9458;50.942;5.074;2022-10-22T14:12:45;17.80;99.90
18658;DHT22;9458;50.942;5.074;2022-10-22T14:15:14;17.80;99.90
18658;DHT22;9458;50.942;5.074;2022-10-22T14:17:45;17.80;99.90
18658;DHT22;9458;50.942;5.074;2022-10-22T14:20:19;17.70;99.90
18658;DHT22;9458;50.942;5.074;2022-10-22T14:22:49;17.70;99.90
18658;DHT22;9458;50.942;5.074;2022-10-22T14:25:19;17.70;99.90
18658;DHT22;9458;50.942;5.074;2022-10-22T14:27:47;17.80;99.90
18658;DHT22;9458;50.942;5.074;2022-10-22T14:30:17;17.80;99.90
18658;DHT22;9458;50.942;5.074;2022-10-22T14:32:45;17.80;99.90
18658;DHT22;9458;50.942;5.074;2022-10-22T14:35:18;17.80;99.90
18658;DHT22;9458;50.942;5.074;2022-10-22T14:37:45;17.80;99.90
18658;DHT22;9458;50.942;5.074;2022-10-22T14:40:16;17.80;99.90
18658;DHT22;9458;50.942;5.074;2022-10-22T14:42:45;17.80;99.90
18658;DHT22;9458;50.942;5.074;2022-10-22T14:45:16;17.80;99.90
18658;DHT22;9458;50.942;5.074;2022-10-22T14:47:43;17.80;99.90
18658;DHT22;9458;50.942;5.074;2022-10-22T14:50:11;17.80;99.90
18658;DHT22;9458;50.942;5.074;2022-10-22T14:52:40;17.80;99.90
18658;DHT22;9458;50.942;5.074;2022-10-22T14:55:08;17.70;99.90
18658;DHT22;9458;50.942;5.074;2022-10-22T14:57:37;17.70;99.90
18658;DHT22;9458;50.942;5.074;2022-10-22T15:00:07;17.70;99.90
18658;DHT22;9458;50.942;5.074;2022-10-22T15:02:35;17.70;99.90
18658;DHT22;9458;50.942;5.074;2022-10-22T15:05:03;17.70;99.90
18658;DHT22;9458;50.942;5.074;2022-10-22T15:07:31;17.70;99.90
18658;DHT22;9458;50.942;5.074;2022-10-22T15:09:59;17.70;99.90
18658;DHT22;9458;50.942;5.074;2022-10-22T15:12:26;17.70;99.90
18658;DHT22;9458;50.942;5.074;2022-10-22T15:14:55;17.70;99.90
18658;DHT22;9458;50.942;5.074;2022-10-22T15:17:23;17.70;99.90
18658;DHT22;9458;50.942;5.074;2022-10-22T15:19:50;17.70;99.90
18658;DHT22;9458;50.942;5.074;2022-10-22T15:22:18;17.60;99.90
18658;DHT22;9458;50.942;5.074;2022-10-22T15:24:46;17.60;99.90
18658;DHT22;9458;50.942;5.074;2022-10-22T15:27:14;17.60;99.90
18658;DHT22;9458;50.942;5.074;2022-10-22T15:29:42;17.60;99.90
18658;DHT22;9458;50.942;5.074;2022-10-22T15:32:11;17.60;99.90
18658;DHT22;9458;50.942;5.074;2022-10-22T15:34:39;17.60;99.90
18658;DHT22;9458;50.942;5.074;2022-10-22T15:37:07;17.60;99.90
18658;DHT22;9458;50.942;5.074;2022-10-22T15:39:38;17.50;99.90
18658;DHT22;9458;50.942;5.074;2022-10-22T15:42:06;17.50;99.90
18658;DHT22;9458;50.942;5.074;2022-10-22T15:44:35;17.50;99.90
18658;DHT22;9458;50.942;5.074;2022-10-22T15:47:03;17.50;99.90
18658;DHT22;9458;50.942;5.074;2022-10-22T15:49:34;17.40;99.90
18658;DHT22;9458;50.942;5.074;2022-10-22T15:52:02;17.40;99.90
18658;DHT22;9458;50.942;5.074;2022-10-22T15:54:31;17.40;99.90
18658;DHT22;9458;50.942;5.074;2022-10-22T15:56:59;17.40;99.90
18658;DHT22;9458;50.942;5.074;2022-10-22T15:59:28;17.40;99.90
18658;DHT22;9458;50.942;5.074;2022-10-22T16:01:56;17.40;99.90
18658;DHT22;9458;50.942;5.074;2022-10-22T16:04:23;17.40;99.90
18658;DHT22;9458;50.942;5.074;2022-10-22T16:06:52;17.40;99.90
18658;DHT22;9458;50.942;5.074;2022-10-22T16:09:21;17.40;99.90